sensor_id;sensor_type;location;lat;lon;timestamp;pressure;altitude;pressure_sealevel;temperature;humidity
48553;BME280;34335;51.566;6.994;2023-06-22T00:01:47;101214.53;;;22.29;95.14
48553;BME280;34335;51.566;6.994;2023-06-22T00:04:12;101206.19;;;22.38;91.28
48553;BME280;34335;51.566;6.994;2023-06-22T00:06:37;101208.50;;;22.25;93.47
48553;BME280;34335;51.566;6.994;2023-06-22T00:09:02;101207.28;;;22.32;91.17
48553;BME280;34335;51.566;6.994;2023-06-22T00:11:28;101214.03;;;22.19;93.66
48553;BME280;34335;51.566;6.994;2023-06-22T00:13:54;101215.44;;;22.28;92.38
48553;BME280;34335;51.566;6.994;2023-06-22T00:16:19;101207.34;;;22.10;99.06
48553;BME280;34335;51.566;6.994;2023-06-22T00:18:44;101212.19;;;22.21;93.55
48553;BME280;34335;51.566;6.994;2023-06-22T00:21:12;101208.19;;;22.10;98.34
48553;BME280;34335;51.566;6.994;2023-06-22T00:23:38;101221.81;;;22.01;96.70
48553;BME280;34335;51.566;6.994;2023-06-22T00:26:03;101211.91;;;22.06;95.72
48553;BME280;34335;51.566;6.994;2023-06-22T00:28:29;101212.69;;;22.08;96.79
48553;BME280;34335;51.566;6.994;2023-06-22T00:30:54;101208.31;;;22.07;98.01
48553;BME280;34335;51.566;6.994;2023-06-22T00:33:19;101209.91;;;22.12;100.00
48553;BME280;34335;51.566;6.994;2023-06-22T00:35:45;101210.59;;;21.94;100.00
48553;BME280;34335;51.566;6.994;2023-06-22T00:38:11;101213.94;;;22.00;98.69
48553;BME280;34335;51.566;6.994;2023-06-22T00:40:36;101214.94;;;21.97;98.86
48553;BME280;34335;51.566;6.994;2023-06-22T00:43:02;101203.16;;;22.04;97.71
48553;BME280;34335;51.566;6.994;2023-06-22T00:45:27;101213.44;;;21.90;100.00
48553;BME280;34335;51.566;6.994;2023-06-22T00:47:56;101220.41;;;21.92;100.00
48553;BME280;34335;51.566;6.994;2023-06-22T00:50:24;101216.09;;;21.90;97.84
48553;BME280;34335;51.566;6.994;2023-06-22T00:52:55;101205.19;;;21.98;100.00
48553;BME280;34335;51.566;6.994;2023-06-22T00:55:22;101209.81;;;21.70;100.00
48553;BME280;34335;51.566;6.994;2023-06-22T00:57:48;101203.75;;;21.89;100.00
48553;BME280;34335;51.566;6.994;2023-06-22T01:00:14;101203.84;;;21.87;97.85
48553;BME280;34335;51.566;6.994;2023-06-22T01:02:42;101198.72;;;21.83;100.00
48553;BME280;34335;51.566;6.994;2023-06-22T01:05:14;101205.81;;;21.82;100.00
48553;BME280;34335;51.566;6.994;2023-06-22T01:07:42;101204.41;;;21.73;98.32
48553;BME280;34335;51.566;6.994;2023-06-22T01:10:18;101196.91;;;21.85;95.13
48553;BME280;34335;51.566;6.994;2023-06-22T01:12:52;101200.19;;;21.90;92.87
48553;BME280;34335;51.566;6.994;2023-06-22T01:15:32;101195.16;;;21.84;100.00
48553;BME280;34335;51.566;6.994;2023-06-22T01:17:59;101197.81;;;21.84;94.69
48553;BME280;34335;51.566;6.994;2023-06-22T01:20:28;101185.59;;;21.79;99.32
48553;BME280;34335;51.566;6.994;2023-06-22T01:23:09;101187.72;;;21.71;94.71
48553;BME280;34335;51.566;6.994;2023-06-22T01:28:41;101190.50;;;21.68;96.03
48553;BME280;34335;51.566;6.994;2023-06-22T01:31:08;101183.97;;;21.77;90.61
48553;BME280;34335;51.566;6.994;2023-06-22T01:33:39;101183.59;;;21.64;100.00
48553;BME280;34335;51.566;6.994;2023-06-22T01:36:06;101190.44;;;21.70;90.93
48553;BME280;34335;51.566;6.994;2023-06-22T01:38:32;101195.53;;;21.74;90.05
48553;BME280;34335;51.566;6.994;2023-06-22T01:40:59;101190.34;;;21.71;92.11
48553;BME280;34335;51.566;6.994;2023-06-22T01:43:26;101188.88;;;21.64;96.44
48553;BME280;34335;51.566;6.994;2023-06-22T01:45:53;101188.78;;;21.67;90.82
48553;BME280;34335;51.566;6.994;2023-06-22T01:48:19;101181.75;;;21.66;90.26
48553;BME280;34335;51.566;6.994;2023-06-22T01:50:44;101182.94;;;21.57;93.19
48553;BME280;34335;51.566;6.994;2023-06-22T01:53:10;101184.00;;;21.53;100.00
48553;BME280;34335;51.566;6.994;2023-06-22T01:55:35;101184.69;;;21.58;91.80
48553;BME280;34335;51.566;6.994;2023-06-22T01:58:01;101179.66;;;21.51;92.09
48553;BME280;34335;51.566;6.994;2023-06-22T02:00:28;101187.66;;;21.49;91.96
48553;BME280;34335;51.566;6.994;2023-06-22T02:03:01;101186.13;;;21.43;100.00
48553;BME280;34335;51.566;6.994;2023-06-22T02:05:43;101195.91;;;21.41;92.33
48553;BME280;34335;51.566;6.994;2023-06-22T02:08:22;101192.75;;;21.31;93.13
48553;BME280;34335;51.566;6.994;2023-06-22T02:10:49;101186.56;;;21.32;92.40
48553;BME280;34335;51.566;6.994;2023-06-22T02:13:15;101190.19;;;21.30;100.00
48553;BME280;34335;51.566;6.994;2023-06-22T02:15:41;101186.09;;;21.21;94.40
48553;BME280;34335;51.566;6.994;2023-06-22T02:18:07;101192.22;;;21.22;100.00
48553;BME280;34335;51.566;6.994;2023-06-22T02:20:32;101192.16;;;21.01;99.82
48553;BME280;34335;51.566;6.994;2023-06-22T02:23:01;101189.19;;;21.09;94.82
48553;BME280;34335;51.566;6.994;2023-06-22T02:25:26;101193.75;;;21.05;94.83
48553;BME280;34335;51.566;6.994;2023-06-22T02:27:51;101195.13;;;20.92;100.00
48553;BME280;34335;51.566;6.994;2023-06-22T02:30:17;101186.31;;;20.91;97.23
48553;BME280;34335;51.566;6.994;2023-06-22T02:32:42;101185.91;;;21.02;93.91
48553;BME280;34335;51.566;6.994;2023-06-22T02:35:09;101184.22;;;21.01;96.17
48553;BME280;34335;51.566;6.994;2023-06-22T02:37:37;101181.78;;;20.95;97.01
48553;BME280;34335;51.566;6.994;2023-06-22T02:40:06;101177.53;;;20.91;100.00
48553;BME280;34335;51.566;6.994;2023-06-22T02:42:33;101180.00;;;20.95;96.66
48553;BME280;34335;51.566;6.994;2023-06-22T02:44:58;101175.56;;;20.96;95.18
48553;BME280;34335;51.566;6.994;2023-06-22T02:47:23;101171.16;;;20.96;95.46
48553;BME280;34335;51.566;6.994;2023-06-22T02:49:49;101167.81;;;20.91;96.16
48553;BME280;34335;51.566;6.994;2023-06-22T02:52:14;101165.25;;;20.90;98.32
48553;BME280;34335;51.566;6.994;2023-06-22T02:54:39;101166.22;;;20.87;98.29
48553;BME280;34335;51.566;6.994;2023-06-22T02:57:05;101157.69;;;20.79;98.73
48553;BME280;34335;51.566;6.994;2023-06-22T02:59:30;101158.44;;;20.82;100.00
48553;BME280;34335;51.566;6.994;2023-06-22T03:01:55;101155.41;;;20.68;100.00
48553;BME280;34335;51.566;6.994;2023-06-22T03:04:21;101163.28;;;20.69;100.00
48553;BME280;34335;51.566;6.994;2023-06-22T03:06:46;101153.03;;;20.60;100.00
48553;BME280;34335;51.566;6.994;2023-06-22T03:09:16;101152.28;;;20.57;100.00
48553;BME280;34335;51.566;6.994;2023-06-22T03:11:42;101150.84;;;20.48;100.00
48553;BME280;34335;51.566;6.994;2023-06-22T03:14:07;101150.47;;;20.59;100.00
48553;BME280;34335;51.566;6.994;2023-06-22T03:16:33;101143.22;;;20.64;99.73
48553;BME280;34335;51.566;6.994;2023-06-22T03:18:58;101146.81;;;20.63;100.00
48553;BME280;34335;51.566;6.994;2023-06-22T03:21:28;101143.34;;;20.61;100.00
48553;BME280;34335;51.566;6.994;2023-06-22T03:23:54;101138.25;;;20.54;100.00
48553;BME280;34335;51.566;6.994;2023-06-22T03:26:19;101139.19;;;20.53;100.00
48553;BME280;34335;51.566;6.994;2023-06-22T03:28:45;101141.19;;;20.47;100.00
48553;BME280;34335;51.566;6.994;2023-06-22T03:31:10;101143.84;;;20.47;100.00
48553;BME280;34335;51.566;6.994;2023-06-22T03:33:36;101137.84;;;20.42;100.00
48553;BME280;34335;51.566;6.994;2023-06-22T03:36:01;101144.75;;;20.46;100.00
48553;BME280;34335;51.566;6.994;2023-06-22T03:38:26;101137.00;;;20.41;100.00
48553;BME280;34335;51.566;6.994;2023-06-22T03:40:52;101133.53;;;20.39;100.00
48553;BME280;34335;51.566;6.994;2023-06-22T03:43:17;101134.69;;;20.32;100.00
48553;BME280;34335;51.566;6.994;2023-06-22T03:45:43;101130.97;;;20.37;100.00
48553;BME280;34335;51.566;6.994;2023-06-22T03:48:10;101129.34;;;20.33;100.00
48553;BME280;34335;51.566;6.994;2023-06-22T03:50:36;101125.94;;;20.30;100.00
48553;BME280;34335;51.566;6.994;2023-06-22T03:53:01;101121.56;;;20.29;100.00
48553;BME280;34335;51.566;6.994;2023-06-22T03:55:26;101118.44;;;20.17;100.00
48553;BME280;34335;51.566;6.994;2023-06-22T03:57:52;101111.88;;;20.29;100.00
48553;BME280;34335;51.566;6.994;2023-06-22T04:00:19;101109.81;;;20.12;100.00
48553;BME280;34335;51.566;6.994;2023-06-22T04:02:44;101108.19;;;20.08;100.00
48553;BME280;34335;51.566;6.994;2023-06-22T04:05:10;101107.94;;;20.16;100.00
48553;BME280;34335;51.566;6.994;2023-06-22T04:07:35;101109.81;;;20.12;100.00
48553;BME280;34335;51.566;6.994;2023-06-22T04:10:03;101105.03;;;19.98;100.00
48553;BME280;34335;51.566;6.994;2023-06-22T04:12:28;101110.16;;;20.03;100.00
48553;BME280;34335;51.566;6.994;2023-06-22T04:14:54;101102.81;;;20.11;100.00
48553;BME280;34335;51.566;6.994;2023-06-22T04:17:19;101097.53;;;20.11;100.00
48553;BME280;34335;51.566;6.994;2023-06-22T04:19:44;101104.75;;;20.06;100.00
48553;BME280;34335;51.566;6.994;2023-06-22T04:22:10;101103.88;;;20.05;100.00
48553;BME280;34335;51.566;6.994;2023-06-22T04:24:35;101103.28;;;19.97;100.00
48553;BME280;34335;51.566;6.994;2023-06-22T04:27:01;101113.28;;;19.87;100.00
48553;BME280;34335;51.566;6.994;2023-06-22T04:29:28;101114.91;;;19.91;100.00
48553;BME280;34335;51.566;6.994;2023-06-22T04:31:55;101118.06;;;20.03;100.00
48553;BME280;34335;51.566;6.994;2023-06-22T04:34:23;101107.53;;;20.01;100.00
48553;BME280;34335;51.566;6.994;2023-06-22T04:36:51;101115.34;;;20.04;100.00
48553;BME280;34335;51.566;6.994;2023-06-22T04:39:16;101115.25;;;20.07;100.00
48553;BME280;34335;51.566;6.994;2023-06-22T04:41:42;101115.28;;;20.06;100.00
48553;BME280;34335;51.566;6.994;2023-06-22T04:44:11;101106.28;;;20.13;100.00
48553;BME280;34335;51.566;6.994;2023-06-22T04:46:37;101107.78;;;20.20;100.00
48553;BME280;34335;51.566;6.994;2023-06-22T04:49:09;101105.72;;;20.29;100.00
48553;BME280;34335;51.566;6.994;2023-06-22T04:51:41;101105.38;;;20.14;100.00
48553;BME280;34335;51.566;6.994;2023-06-22T04:54:08;101103.09;;;20.29;100.00
48553;BME280;34335;51.566;6.994;2023-06-22T04:56:34;101106.38;;;20.35;100.00
48553;BME280;34335;51.566;6.994;2023-06-22T04:59:00;101109.75;;;20.39;100.00
48553;BME280;34335;51.566;6.994;2023-06-22T05:01:26;101109.94;;;20.34;100.00
48553;BME280;34335;51.566;6.994;2023-06-22T05:03:51;101107.34;;;20.33;100.00
48553;BME280;34335;51.566;6.994;2023-06-22T05:06:21;101110.91;;;20.32;100.00
48553;BME280;34335;51.566;6.994;2023-06-22T05:08:46;101107.69;;;20.23;100.00
48553;BME280;34335;51.566;6.994;2023-06-22T05:11:12;101112.06;;;20.24;100.00
48553;BME280;34335;51.566;6.994;2023-06-22T05:13:37;101118.84;;;20.32;100.00
48553;BME280;34335;51.566;6.994;2023-06-22T05:16:03;101122.88;;;20.42;100.00
48553;BME280;34335;51.566;6.994;2023-06-22T05:18:29;101116.50;;;20.22;100.00
48553;BME280;34335;51.566;6.994;2023-06-22T05:20:55;101117.78;;;20.36;100.00
48553;BME280;34335;51.566;6.994;2023-06-22T05:23:20;101112.31;;;20.42;100.00
48553;BME280;34335;51.566;6.994;2023-06-22T05:25:45;101109.28;;;20.28;100.00
48553;BME280;34335;51.566;6.994;2023-06-22T05:28:11;101114.22;;;20.37;100.00
48553;BME280;34335;51.566;6.994;2023-06-22T05:30:37;101110.44;;;20.44;100.00
48553;BME280;34335;51.566;6.994;2023-06-22T05:33:02;101111.97;;;20.51;100.00
48553;BME280;34335;51.566;6.994;2023-06-22T05:35:27;101114.03;;;20.43;100.00
48553;BME280;34335;51.566;6.994;2023-06-22T05:37:53;101119.00;;;20.52;100.00
48553;BME280;34335;51.566;6.994;2023-06-22T05:40:18;101115.31;;;20.57;100.00
48553;BME280;34335;51.566;6.994;2023-06-22T05:42:43;101122.53;;;20.51;100.00
48553;BME280;34335;51.566;6.994;2023-06-22T05:45:09;101127.81;;;20.51;100.00
48553;BME280;34335;51.566;6.994;2023-06-22T05:47:34;101133.44;;;20.42;100.00
48553;BME280;34335;51.566;6.994;2023-06-22T05:50:00;101136.59;;;20.52;100.00
48553;BME280;34335;51.566;6.994;2023-06-22T05:52:25;101138.72;;;20.67;100.00
48553;BME280;34335;51.566;6.994;2023-06-22T05:54:50;101139.06;;;20.57;100.00
48553;BME280;34335;51.566;6.994;2023-06-22T05:57:16;101139.88;;;20.59;100.00
48553;BME280;34335;51.566;6.994;2023-06-22T05:59:41;101138.88;;;20.63;100.00
48553;BME280;34335;51.566;6.994;2023-06-22T06:02:06;101135.34;;;20.62;100.00
48553;BME280;34335;51.566;6.994;2023-06-22T06:04:31;101136.44;;;20.57;100.00
48553;BME280;34335;51.566;6.994;2023-06-22T06:06:57;101144.63;;;20.49;100.00
48553;BME280;34335;51.566;6.994;2023-06-22T06:09:22;101153.94;;;20.59;100.00
48553;BME280;34335;51.566;6.994;2023-06-22T06:11:47;101156.56;;;20.61;100.00
48553;BME280;34335;51.566;6.994;2023-06-22T06:14:13;101158.00;;;20.44;100.00
48553;BME280;34335;51.566;6.994;2023-06-22T06:16:38;101149.88;;;20.50;100.00
48553;BME280;34335;51.566;6.994;2023-06-22T06:19:03;101145.72;;;20.43;100.00
48553;BME280;34335;51.566;6.994;2023-06-22T06:21:29;101147.56;;;20.41;100.00
48553;BME280;34335;51.566;6.994;2023-06-22T06:23:54;101154.50;;;20.44;100.00
48553;BME280;34335;51.566;6.994;2023-06-22T06:26:19;101149.16;;;20.45;100.00
48553;BME280;34335;51.566;6.994;2023-06-22T06:28:53;101150.69;;;20.52;100.00
48553;BME280;34335;51.566;6.994;2023-06-22T06:31:18;101147.41;;;20.46;100.00
48553;BME280;34335;51.566;6.994;2023-06-22T06:33:43;101151.44;;;20.56;100.00
48553;BME280;34335;51.566;6.994;2023-06-22T06:36:09;101146.09;;;20.58;100.00
48553;BME280;34335;51.566;6.994;2023-06-22T06:38:34;101132.19;;;20.52;100.00
48553;BME280;34335;51.566;6.994;2023-06-22T06:40:59;101144.75;;;20.46;100.00
48553;BME280;34335;51.566;6.994;2023-06-22T06:43:25;101138.59;;;20.45;100.00
48553;BME280;34335;51.566;6.994;2023-06-22T06:45:50;101141.81;;;20.53;100.00
48553;BME280;34335;51.566;6.994;2023-06-22T06:48:16;101136.44;;;20.57;100.00
48553;BME280;34335;51.566;6.994;2023-06-22T06:50:42;101137.50;;;20.51;100.00
48553;BME280;34335;51.566;6.994;2023-06-22T06:53:09;101126.63;;;20.35;100.00
48553;BME280;34335;51.566;6.994;2023-06-22T06:55:34;101131.72;;;20.41;100.00
48553;BME280;34335;51.566;6.994;2023-06-22T06:58:00;101125.44;;;20.44;100.00
48553;BME280;34335;51.566;6.994;2023-06-22T07:00:25;101122.97;;;20.39;100.00
48553;BME280;34335;51.566;6.994;2023-06-22T07:02:51;101113.59;;;20.30;100.00
48553;BME280;34335;51.566;6.994;2023-06-22T07:05:17;101118.22;;;20.49;100.00
48553;BME280;34335;51.566;6.994;2023-06-22T07:07:42;101114.31;;;20.59;100.00
48553;BME280;34335;51.566;6.994;2023-06-22T07:10:08;101120.38;;;20.63;100.00
48553;BME280;34335;51.566;6.994;2023-06-22T07:12:34;101119.34;;;20.67;100.00
48553;BME280;34335;51.566;6.994;2023-06-22T07:15:09;101113.41;;;20.60;100.00
48553;BME280;34335;51.566;6.994;2023-06-22T07:17:35;101109.09;;;20.58;100.00
48553;BME280;34335;51.566;6.994;2023-06-22T07:20:03;101099.06;;;20.67;100.00
48553;BME280;34335;51.566;6.994;2023-06-22T07:22:39;101100.72;;;20.70;100.00
48553;BME280;34335;51.566;6.994;2023-06-22T07:25:05;101099.09;;;20.66;100.00
48553;BME280;34335;51.566;6.994;2023-06-22T07:27:38;101092.66;;;20.75;100.00
48553;BME280;34335;51.566;6.994;2023-06-22T07:30:08;101096.97;;;20.77;100.00
48553;BME280;34335;51.566;6.994;2023-06-22T07:32:33;101096.25;;;20.72;100.00
48553;BME280;34335;51.566;6.994;2023-06-22T07:34:59;101090.97;;;20.72;100.00
48553;BME280;34335;51.566;6.994;2023-06-22T07:37:24;101099.44;;;20.82;100.00
48553;BME280;34335;51.566;6.994;2023-06-22T07:39:49;101097.63;;;20.82;100.00
48553;BME280;34335;51.566;6.994;2023-06-22T07:42:18;101088.06;;;20.80;100.00
48553;BME280;34335;51.566;6.994;2023-06-22T07:44:44;101089.66;;;20.84;100.00
48553;BME280;34335;51.566;6.994;2023-06-22T07:47:09;101087.78;;;20.88;100.00
48553;BME280;34335;51.566;6.994;2023-06-22T07:49:35;101084.41;;;20.82;100.00
48553;BME280;34335;51.566;6.994;2023-06-22T07:52:00;101086.03;;;20.86;100.00
48553;BME280;34335;51.566;6.994;2023-06-22T07:54:26;101086.69;;;20.93;100.00
48553;BME280;34335;51.566;6.994;2023-06-22T07:56:52;101095.31;;;20.75;100.00
48553;BME280;34335;51.566;6.994;2023-06-22T07:59:17;101091.69;;;20.77;100.00
48553;BME280;34335;51.566;6.994;2023-06-22T08:01:43;101095.00;;;20.82;100.00
48553;BME280;34335;51.566;6.994;2023-06-22T08:04:08;101083.22;;;20.91;100.00
48553;BME280;34335;51.566;6.994;2023-06-22T08:06:33;101075.28;;;20.91;100.00
48553;BME280;34335;51.566;6.994;2023-06-22T08:08:59;101076.94;;;20.94;100.00
48553;BME280;34335;51.566;6.994;2023-06-22T08:11:24;101071.19;;;21.06;100.00
48553;BME280;34335;51.566;6.994;2023-06-22T08:13:51;101066.75;;;21.07;100.00
48553;BME280;34335;51.566;6.994;2023-06-22T08:16:16;101068.25;;;21.14;100.00
48553;BME280;34335;51.566;6.994;2023-06-22T08:18:42;101067.53;;;21.10;100.00
48553;BME280;34335;51.566;6.994;2023-06-22T08:21:08;101062.72;;;21.20;100.00
48553;BME280;34335;51.566;6.994;2023-06-22T08:23:33;101061.06;;;21.17;100.00
48553;BME280;34335;51.566;6.994;2023-06-22T08:25:58;101051.16;;;21.23;100.00
48553;BME280;34335;51.566;6.994;2023-06-22T08:28:24;101044.75;;;21.28;100.00
48553;BME280;34335;51.566;6.994;2023-06-22T08:30:49;101041.19;;;21.29;100.00
48553;BME280;34335;51.566;6.994;2023-06-22T08:33:14;101021.75;;;21.30;100.00
48553;BME280;34335;51.566;6.994;2023-06-22T08:35:40;101006.50;;;21.37;100.00
48553;BME280;34335;51.566;6.994;2023-06-22T08:38:05;101001.66;;;21.47;100.00
48553;BME280;34335;51.566;6.994;2023-06-22T08:40:30;100988.97;;;21.55;100.00
48553;BME280;34335;51.566;6.994;2023-06-22T08:42:55;100987.63;;;21.67;100.00
48553;BME280;34335;51.566;6.994;2023-06-22T08:45:21;100991.22;;;21.66;100.00
48553;BME280;34335;51.566;6.994;2023-06-22T08:47:46;100984.97;;;21.88;100.00
48553;BME280;34335;51.566;6.994;2023-06-22T08:50:12;100978.53;;;21.93;100.00
48553;BME280;34335;51.566;6.994;2023-06-22T08:52:39;100981.44;;;22.08;100.00
48553;BME280;34335;51.566;6.994;2023-06-22T08:55:07;100982.16;;;22.12;100.00
48553;BME280;34335;51.566;6.994;2023-06-22T08:57:32;100988.75;;;22.22;100.00
48553;BME280;34335;51.566;6.994;2023-06-22T08:59:58;100989.59;;;22.22;100.00
48553;BME280;34335;51.566;6.994;2023-06-22T09:02:25;100990.13;;;22.31;100.00
48553;BME280;34335;51.566;6.994;2023-06-22T09:04:50;100990.59;;;22.40;100.00
48553;BME280;34335;51.566;6.994;2023-06-22T09:07:21;100993.75;;;22.49;100.00
48553;BME280;34335;51.566;6.994;2023-06-22T09:09:47;100992.50;;;22.56;100.00
48553;BME280;34335;51.566;6.994;2023-06-22T09:12:12;100983.38;;;22.63;100.00
48553;BME280;34335;51.566;6.994;2023-06-22T09:14:38;100972.31;;;22.72;100.00
48553;BME280;34335;51.566;6.994;2023-06-22T09:17:04;100973.88;;;22.77;100.00
48553;BME280;34335;51.566;6.994;2023-06-22T09:19:30;100974.38;;;22.85;100.00
48553;BME280;34335;51.566;6.994;2023-06-22T09:21:55;100979.63;;;22.86;100.00
48553;BME280;34335;51.566;6.994;2023-06-22T09:24:20;100975.72;;;22.94;100.00
48553;BME280;34335;51.566;6.994;2023-06-22T09:26:45;100978.28;;;22.95;100.00
48553;BME280;34335;51.566;6.994;2023-06-22T09:29:11;100972.53;;;23.04;100.00
48553;BME280;34335;51.566;6.994;2023-06-22T09:31:36;100975.69;;;23.13;100.00
48553;BME280;34335;51.566;6.994;2023-06-22T09:34:01;100972.06;;;23.14;100.00
48553;BME280;34335;51.566;6.994;2023-06-22T09:36:27;100968.25;;;23.21;100.00
48553;BME280;34335;51.566;6.994;2023-06-22T09:38:52;100972.28;;;23.28;100.00
48553;BME280;34335;51.566;6.994;2023-06-22T09:41:21;100972.22;;;23.30;100.00
48553;BME280;34335;51.566;6.994;2023-06-22T09:43:47;100974.81;;;23.31;100.00
48553;BME280;34335;51.566;6.994;2023-06-22T09:46:15;100967.47;;;23.37;100.00
48553;BME280;34335;51.566;6.994;2023-06-22T09:48:40;100962.72;;;23.43;100.00
48553;BME280;34335;51.566;6.994;2023-06-22T09:51:05;100968.72;;;23.47;100.00
48553;BME280;34335;51.566;6.994;2023-06-22T09:53:31;100965.22;;;23.46;100.00
48553;BME280;34335;51.566;6.994;2023-06-22T09:55:56;100962.63;;;23.45;100.00
48553;BME280;34335;51.566;6.994;2023-06-22T09:58:22;100972.16;;;23.49;100.00
48553;BME280;34335;51.566;6.994;2023-06-22T10:00:47;100966.50;;;23.55;100.00
48553;BME280;34335;51.566;6.994;2023-06-22T10:03:13;100957.63;;;23.56;100.00
48553;BME280;34335;51.566;6.994;2023-06-22T10:05:38;100962.44;;;23.65;100.00
48553;BME280;34335;51.566;6.994;2023-06-22T10:08:03;100963.00;;;23.72;100.00
48553;BME280;34335;51.566;6.994;2023-06-22T10:10:29;100954.69;;;23.78;100.00
48553;BME280;34335;51.566;6.994;2023-06-22T10:12:56;100955.09;;;23.88;100.00
48553;BME280;34335;51.566;6.994;2023-06-22T10:15:22;100953.00;;;24.11;100.00
48553;BME280;34335;51.566;6.994;2023-06-22T10:17:48;100946.38;;;24.36;100.00
48553;BME280;34335;51.566;6.994;2023-06-22T10:20:13;100940.19;;;24.35;100.00
48553;BME280;34335;51.566;6.994;2023-06-22T10:22:43;100936.06;;;24.94;100.00
48553;BME280;34335;51.566;6.994;2023-06-22T10:25:11;100937.31;;;25.02;100.00
48553;BME280;34335;51.566;6.994;2023-06-22T10:27:37;100928.75;;;24.97;100.00
48553;BME280;34335;51.566;6.994;2023-06-22T10:30:08;100927.44;;;25.04;100.00
48553;BME280;34335;51.566;6.994;2023-06-22T10:32:34;100920.00;;;25.26;100.00
48553;BME280;34335;51.566;6.994;2023-06-22T10:34:59;100914.09;;;25.20;100.00
48553;BME280;34335;51.566;6.994;2023-06-22T10:37:25;100909.72;;;25.19;100.00
48553;BME280;34335;51.566;6.994;2023-06-22T10:39:50;100909.19;;;25.29;100.00
48553;BME280;34335;51.566;6.994;2023-06-22T10:42:15;100904.69;;;25.60;100.00
48553;BME280;34335;51.566;6.994;2023-06-22T10:44:41;100906.13;;;25.80;100.00
48553;BME280;34335;51.566;6.994;2023-06-22T10:47:08;100905.75;;;25.86;100.00
48553;BME280;34335;51.566;6.994;2023-06-22T10:49:33;100916.97;;;25.91;100.00
48553;BME280;34335;51.566;6.994;2023-06-22T10:51:59;100909.44;;;25.83;100.00
48553;BME280;34335;51.566;6.994;2023-06-22T10:54:24;100915.72;;;25.82;100.00
48553;BME280;34335;51.566;6.994;2023-06-22T10:56:49;100914.31;;;25.91;100.00
48553;BME280;34335;51.566;6.994;2023-06-22T10:59:15;100913.34;;;25.92;100.00
48553;BME280;34335;51.566;6.994;2023-06-22T11:01:41;100917.44;;;25.98;100.00
48553;BME280;34335;51.566;6.994;2023-06-22T11:04:06;100931.31;;;26.03;100.00
48553;BME280;34335;51.566;6.994;2023-06-22T11:06:31;100927.91;;;26.01;100.00
48553;BME280;34335;51.566;6.994;2023-06-22T11:08:57;100934.56;;;25.94;100.00
48553;BME280;34335;51.566;6.994;2023-06-22T11:11:23;100946.69;;;26.14;100.00
48553;BME280;34335;51.566;6.994;2023-06-22T11:13:48;100950.63;;;26.07;100.00
48553;BME280;34335;51.566;6.994;2023-06-22T11:16:14;100949.41;;;25.98;100.00
48553;BME280;34335;51.566;6.994;2023-06-22T11:18:39;100956.81;;;25.78;100.00
48553;BME280;34335;51.566;6.994;2023-06-22T11:21:04;100954.00;;;25.81;100.00
48553;BME280;34335;51.566;6.994;2023-06-22T11:23:30;100953.22;;;26.08;100.00
48553;BME280;34335;51.566;6.994;2023-06-22T11:25:55;100948.41;;;26.15;100.00
48553;BME280;34335;51.566;6.994;2023-06-22T11:28:20;100949.63;;;26.09;100.00
48553;BME280;34335;51.566;6.994;2023-06-22T11:30:46;100947.13;;;26.06;100.00
48553;BME280;34335;51.566;6.994;2023-06-22T11:33:11;100942.47;;;26.10;100.00
48553;BME280;34335;51.566;6.994;2023-06-22T11:35:36;100945.81;;;25.99;100.00
48553;BME280;34335;51.566;6.994;2023-06-22T11:38:02;100936.38;;;25.93;100.00
48553;BME280;34335;51.566;6.994;2023-06-22T11:40:47;100942.63;;;26.07;100.00
48553;BME280;34335;51.566;6.994;2023-06-22T11:43:13;100944.84;;;26.15;100.00
48553;BME280;34335;51.566;6.994;2023-06-22T11:45:40;100941.81;;;25.92;100.00
48553;BME280;34335;51.566;6.994;2023-06-22T11:48:05;100948.25;;;25.59;100.00
48553;BME280;34335;51.566;6.994;2023-06-22T11:50:30;100954.81;;;25.82;100.00
48553;BME280;34335;51.566;6.994;2023-06-22T11:53:00;100946.56;;;25.87;100.00
48553;BME280;34335;51.566;6.994;2023-06-22T11:55:26;100949.22;;;25.72;100.00
48553;BME280;34335;51.566;6.994;2023-06-22T11:57:54;100956.91;;;25.62;100.00
48553;BME280;34335;51.566;6.994;2023-06-22T12:00:20;100951.88;;;25.72;100.00
48553;BME280;34335;51.566;6.994;2023-06-22T12:02:48;100949.50;;;25.67;100.00
48553;BME280;34335;51.566;6.994;2023-06-22T12:05:13;100942.75;;;25.76;100.00
48553;BME280;34335;51.566;6.994;2023-06-22T12:07:39;100920.00;;;25.71;100.00
48553;BME280;34335;51.566;6.994;2023-06-22T12:10:04;100912.19;;;25.53;100.00
48553;BME280;34335;51.566;6.994;2023-06-22T12:12:30;100904.44;;;25.34;100.00
48553;BME280;34335;51.566;6.994;2023-06-22T12:14:55;100890.88;;;25.39;100.00
48553;BME280;34335;51.566;6.994;2023-06-22T12:17:20;100869.25;;;25.14;100.00
48553;BME280;34335;51.566;6.994;2023-06-22T12:19:46;100861.31;;;24.98;100.00
48553;BME280;34335;51.566;6.994;2023-06-22T12:22:11;100835.94;;;24.93;100.00
48553;BME280;34335;51.566;6.994;2023-06-22T12:24:36;100810.84;;;24.36;100.00
48553;BME280;34335;51.566;6.994;2023-06-22T12:27:01;100814.03;;;24.73;100.00
48553;BME280;34335;51.566;6.994;2023-06-22T12:29:28;100813.94;;;24.58;100.00
48553;BME280;34335;51.566;6.994;2023-06-22T12:31:53;100827.56;;;24.38;100.00
48553;BME280;34335;51.566;6.994;2023-06-22T12:34:19;100828.94;;;24.13;100.00
48553;BME280;34335;51.566;6.994;2023-06-22T12:36:44;100818.44;;;24.42;100.00
48553;BME280;34335;51.566;6.994;2023-06-22T12:39:09;100808.47;;;24.46;100.00
48553;BME280;34335;51.566;6.994;2023-06-22T12:41:34;100795.47;;;24.41;100.00